Time;durP1;ratioP1;P1;durP2;ratioP2;P2;SDS_P1;SDS_P2;PMS_P1;PMS_P2;Temp;Humidity;BMP_temperature;BMP_pressure;BME280_temperature;BME280_humidity;BME280_pressure;Samples;Min_cycle;Max_cycle;Signal;HPM_P1;HPM_P2
2022/08/10 00:00:20;;;;;;;8.47;6.47;;;;;;;;;;5047195;28;20053;-64
2022/08/10 00:02:53;;;;;;;7.47;6.37;;;;;;;;;;5047393;28;20075;-64
2022/08/10 00:05:19;;;;;;;10.65;6.70;;;;;;;;;;5047203;28;20087;-64
2022/08/10 00:07:46;;;;;;;9.40;6.73;;;;;;;;;;5047595;28;20033;-64
2022/08/10 00:10:13;;;;;;;10.17;7.03;;;;;;;;;;5047400;28;20061;-64
2022/08/10 00:12:39;;;;;;;11.43;6.47;;;;;;;;;;5048016;28;20407;-64
2022/08/10 00:15:06;;;;;;;10.37;7.43;;;;;;;;;;5047405;28;20499;-64
2022/08/10 00:17:32;;;;;;;9.60;7.07;;;;;;;;;;5046780;28;20052;-65
2022/08/10 00:19:58;;;;;;;10.40;6.87;;;;;;;;;;5046887;28;20053;-64
2022/08/10 00:22:24;;;;;;;10.73;7.40;;;;;;;;;;5046185;28;20491;-64
2022/08/10 00:24:50;;;;;;;9.53;7.13;;;;;;;;;;5047170;28;20052;-64
2022/08/10 00:27:16;;;;;;;11.07;8.33;;;;;;;;;;5047270;28;20053;-64
2022/08/10 00:29:42;;;;;;;11.53;7.40;;;;;;;;;;5046997;28;20132;-64
2022/08/10 00:32:08;;;;;;;12.70;8.20;;;;;;;;;;5047369;28;20076;-64
2022/08/10 00:34:35;;;;;;;11.47;8.07;;;;;;;;;;5046995;28;20073;-64
2022/08/10 00:37:01;;;;;;;14.37;8.83;;;;;;;;;;5046945;28;20041;-64
2022/08/10 00:39:27;;;;;;;16.03;9.93;;;;;;;;;;5047014;28;20432;-64
2022/08/10 00:41:54;;;;;;;13.13;8.57;;;;;;;;;;5047370;28;20040;-64
2022/08/10 00:44:20;;;;;;;12.20;8.50;;;;;;;;;;5046571;28;20125;-64
2022/08/10 00:46:46;;;;;;;13.70;8.53;;;;;;;;;;5048546;28;20045;-64
2022/08/10 00:49:12;;;;;;;13.67;8.07;;;;;;;;;;5050706;28;20075;-64
2022/08/10 00:51:39;;;;;;;14.27;9.03;;;;;;;;;;5050853;28;20056;-64
2022/08/10 00:54:05;;;;;;;14.30;8.20;;;;;;;;;;5050305;28;20041;-64
2022/08/10 00:56:31;;;;;;;14.83;8.93;;;;;;;;;;5050768;28;20114;-64
2022/08/10 00:58:58;;;;;;;17.07;9.00;;;;;;;;;;5050541;28;20474;-64
2022/08/10 01:01:24;;;;;;;16.87;9.67;;;;;;;;;;5050936;28;20052;-64
2022/08/10 01:03:50;;;;;;;14.47;9.47;;;;;;;;;;5049977;28;20045;-64
2022/08/10 01:06:42;;;;;;;16.40;10.20;;;;;;;;;;5050890;28;20394;-64
2022/08/10 01:09:11;;;;;;;14.53;9.70;;;;;;;;;;5041870;28;20392;-64
2022/08/10 01:11:46;;;;;;;17.33;10.00;;;;;;;;;;5051246;28;20415;-64
2022/08/10 01:14:26;;;;;;;22.87;9.60;;;;;;;;;;5049816;28;20071;-64
2022/08/10 01:16:59;;;;;;;16.40;10.63;;;;;;;;;;5050717;28;20095;-64
2022/08/10 01:19:31;;;;;;;16.13;8.82;;;;;;;;;;5050283;28;20510;-64
2022/08/10 01:22:16;;;;;;;19.80;9.83;;;;;;;;;;5048683;28;20053;-64
2022/08/10 01:25:03;;;;;;;22.73;11.13;;;;;;;;;;5050338;28;20051;-64
2022/08/10 01:27:48;;;;;;;19.97;10.83;;;;;;;;;;5048246;28;20071;-64
2022/08/10 01:30:14;;;;;;;18.67;10.97;;;;;;;;;;5050439;28;20049;-64
2022/08/10 01:32:53;;;;;;;23.47;11.83;;;;;;;;;;5048998;28;20048;-64
2022/08/10 01:35:25;;;;;;;21.60;12.00;;;;;;;;;;5050296;28;20076;-64
2022/08/10 01:37:58;;;;;;;19.73;11.23;;;;;;;;;;5049995;28;20052;-64
2022/08/10 01:40:27;;;;;;;21.70;12.33;;;;;;;;;;5049223;28;20549;-64
2022/08/10 01:42:55;;;;;;;15.93;10.10;;;;;;;;;;5050113;28;20041;-64
2022/08/10 01:45:22;;;;;;;20.57;11.37;;;;;;;;;;5049890;28;20099;-64
2022/08/10 01:50:40;;;;;;;20.00;11.80;;;;;;;;;;5043003;28;20040;-64
2022/08/10 01:53:09;;;;;;;21.93;11.73;;;;;;;;;;5047417;28;20051;-64
2022/08/10 01:55:36;;;;;;;23.57;12.87;;;;;;;;;;5049811;28;20381;-64
2022/08/10 01:58:03;;;;;;;24.57;12.93;;;;;;;;;;5049030;28;20037;-64
2022/08/10 02:00:31;;;;;;;24.70;11.77;;;;;;;;;;5049841;28;20041;-64
2022/08/10 02:02:57;;;;;;;23.87;12.80;;;;;;;;;;5048973;28;20221;-64
2022/08/10 02:05:24;;;;;;;21.33;11.87;;;;;;;;;;5049964;28;20396;-64
2022/08/10 02:07:50;;;;;;;19.87;12.03;;;;;;;;;;5049851;28;20041;-64
2022/08/10 02:10:18;;;;;;;25.90;14.53;;;;;;;;;;5049249;28;20130;-64
2022/08/10 02:12:45;;;;;;;32.70;14.63;;;;;;;;;;5049531;28;20041;-64
2022/08/10 02:15:17;;;;;;;25.47;12.83;;;;;;;;;;5045491;28;20060;-64
2022/08/10 02:17:51;;;;;;;23.07;13.27;;;;;;;;;;5041797;28;20067;-64
2022/08/10 02:20:20;;;;;;;22.63;12.13;;;;;;;;;;5049331;28;20052;-64
2022/08/10 02:22:48;;;;;;;23.03;12.67;;;;;;;;;;5049211;28;20124;-64
2022/08/10 02:25:15;;;;;;;32.23;13.70;;;;;;;;;;5045301;28;20503;-64
2022/08/10 02:27:42;;;;;;;22.53;11.17;;;;;;;;;;5049101;28;20045;-64
2022/08/10 02:30:09;;;;;;;23.57;10.87;;;;;;;;;;5048638;28;20041;-64
2022/08/10 02:32:36;;;;;;;23.87;12.13;;;;;;;;;;5049366;28;20053;-64
2022/08/10 02:35:03;;;;;;;20.60;11.03;;;;;;;;;;5049104;28;20053;-64
2022/08/10 02:37:30;;;;;;;22.47;10.27;;;;;;;;;;5048884;28;20049;-64
2022/08/10 02:39:56;;;;;;;23.17;11.63;;;;;;;;;;5049162;28;20044;-64
2022/08/10 02:42:28;;;;;;;24.23;11.77;;;;;;;;;;5047521;28;20053;-64
2022/08/10 02:44:59;;;;;;;25.23;12.93;;;;;;;;;;5048351;28;20044;-64
2022/08/10 02:47:27;;;;;;;34.50;15.93;;;;;;;;;;5049189;28;20091;-64
2022/08/10 02:50:03;;;;;;;23.40;12.70;;;;;;;;;;5047966;28;20045;-64
2022/08/10 02:52:34;;;;;;;26.27;13.90;;;;;;;;;;5049118;28;20098;-64
2022/08/10 02:55:12;;;;;;;30.53;14.30;;;;;;;;;;5048477;28;20532;-64
2022/08/10 02:57:40;;;;;;;28.83;15.00;;;;;;;;;;5048587;28;20052;-64
2022/08/10 03:00:06;;;;;;;34.30;17.17;;;;;;;;;;5048525;28;20048;-64
2022/08/10 03:02:41;;;;;;;38.30;17.50;;;;;;;;;;5048008;28;20056;-65
2022/08/10 03:05:09;;;;;;;46.93;18.33;;;;;;;;;;5045039;28;20095;-64
2022/08/10 03:07:37;;;;;;;33.13;15.90;;;;;;;;;;5048317;28;20131;-64
2022/08/10 03:10:05;;;;;;;40.73;18.60;;;;;;;;;;5046525;28;20057;-64
2022/08/10 03:12:32;;;;;;;43.93;18.87;;;;;;;;;;5048119;28;20049;-66
2022/08/10 03:14:58;;;;;;;44.83;19.07;;;;;;;;;;5047279;28;20521;-64
2022/08/10 03:17:25;;;;;;;37.83;17.27;;;;;;;;;;5048139;28;20045;-64
2022/08/10 03:19:51;;;;;;;39.60;18.30;;;;;;;;;;5048288;28;20068;-64
2022/08/10 03:22:18;;;;;;;43.30;18.77;;;;;;;;;;5047409;28;20381;-64
2022/08/10 03:24:45;;;;;;;38.37;17.07;;;;;;;;;;5048351;28;20052;-64
2022/08/10 03:27:12;;;;;;;28.30;13.43;;;;;;;;;;5048007;28;20406;-64
2022/08/10 03:29:38;;;;;;;38.97;17.13;;;;;;;;;;5047892;28;20514;-64
2022/08/10 03:32:05;;;;;;;34.47;16.00;;;;;;;;;;5048132;28;20048;-64
2022/08/10 03:34:33;;;;;;;32.57;13.50;;;;;;;;;;5047607;28;20045;-64
2022/08/10 03:37:00;;;;;;;41.67;15.00;;;;;;;;;;5047693;28;20041;-64
2022/08/10 03:39:26;;;;;;;25.33;10.87;;;;;;;;;;5047904;28;20044;-64
2022/08/10 03:41:57;;;;;;;25.63;12.00;;;;;;;;;;5047471;28;20037;-64
2022/08/10 03:44:24;;;;;;;31.00;12.93;;;;;;;;;;5048332;28;20052;-65
2022/08/10 03:46:51;;;;;;;30.23;12.60;;;;;;;;;;5047743;28;20040;-64
2022/08/10 03:49:19;;;;;;;26.97;13.07;;;;;;;;;;5047240;28;20411;-64
2022/08/10 03:51:48;;;;;;;36.57;16.23;;;;;;;;;;5046077;28;20049;-64
2022/08/10 03:54:14;;;;;;;42.37;16.50;;;;;;;;;;5047603;28;20288;-64
2022/08/10 03:56:40;;;;;;;33.73;13.90;;;;;;;;;;5048010;28;20041;-64
2022/08/10 03:59:07;;;;;;;24.27;10.90;;;;;;;;;;5047147;28;20044;-64
2022/08/10 04:01:33;;;;;;;23.10;10.90;;;;;;;;;;5047070;28;20106;-64
2022/08/10 04:03:59;;;;;;;34.63;13.23;;;;;;;;;;5047263;28;20128;-64
2022/08/10 04:06:26;;;;;;;28.27;12.43;;;;;;;;;;5047653;28;20045;-64
2022/08/10 04:08:52;;;;;;;37.93;16.93;;;;;;;;;;5047156;28;20063;-64
2022/08/10 04:11:18;;;;;;;32.07;13.67;;;;;;;;;;5047525;28;20049;-64
2022/08/10 04:13:44;;;;;;;27.93;11.53;;;;;;;;;;5047008;28;20794;-64
2022/08/10 04:16:10;;;;;;;31.53;13.13;;;;;;;;;;5047547;28;20075;-65
2022/08/10 04:18:36;;;;;;;27.73;11.97;;;;;;;;;;5047473;28;20072;-64
2022/08/10 04:21:06;;;;;;;29.33;12.43;;;;;;;;;;5047864;28;20525;-65
2022/08/10 04:23:33;;;;;;;37.07;14.33;;;;;;;;;;5042597;28;20036;-64
2022/08/10 04:26:00;;;;;;;59.57;21.70;;;;;;;;;;5051364;28;20502;-64
2022/08/10 04:28:26;;;;;;;45.13;18.83;;;;;;;;;;5051377;28;20037;-65
2022/08/10 04:30:53;;;;;;;41.20;16.97;;;;;;;;;;5050972;28;20584;-65
2022/08/10 04:33:21;;;;;;;44.50;17.40;;;;;;;;;;5050861;28;20041;-65
2022/08/10 04:35:48;;;;;;;35.50;15.43;;;;;;;;;;5051107;28;20052;-65
2022/08/10 04:38:15;;;;;;;42.17;17.40;;;;;;;;;;5050372;28;20068;-65
2022/08/10 04:40:41;;;;;;;50.10;18.13;;;;;;;;;;5050932;28;20048;-65
2022/08/10 04:43:07;;;;;;;42.00;16.23;;;;;;;;;;5050166;28;20053;-65
2022/08/10 04:45:34;;;;;;;50.27;18.07;;;;;;;;;;5050597;28;20434;-65
2022/08/10 04:48:00;;;;;;;40.47;18.47;;;;;;;;;;5050632;28;20037;-65
2022/08/10 04:50:26;;;;;;;44.33;17.87;;;;;;;;;;5051102;28;20461;-65
2022/08/10 04:52:52;;;;;;;45.30;19.07;;;;;;;;;;5050464;28;20088;-65
2022/08/10 04:55:18;;;;;;;57.63;21.37;;;;;;;;;;5050702;28;20061;-65
2022/08/10 04:57:45;;;;;;;40.57;17.93;;;;;;;;;;5048991;28;20044;-65
2022/08/10 05:00:11;;;;;;;45.10;20.53;;;;;;;;;;5050529;28;20049;-65
2022/08/10 05:02:37;;;;;;;48.87;19.70;;;;;;;;;;5050609;28;20592;-65
2022/08/10 05:05:03;;;;;;;47.33;20.60;;;;;;;;;;5049600;28;20049;-65
2022/08/10 05:07:29;;;;;;;49.30;20.50;;;;;;;;;;5050050;28;20047;-65
2022/08/10 05:09:55;;;;;;;53.73;22.20;;;;;;;;;;5050784;28;20465;-65
2022/08/10 05:12:22;;;;;;;60.00;23.67;;;;;;;;;;5050335;28;20516;-65
2022/08/10 05:14:48;;;;;;;44.27;19.20;;;;;;;;;;5050281;28;20593;-65
2022/08/10 05:17:14;;;;;;;43.80;19.53;;;;;;;;;;5050577;28;20469;-65
2022/08/10 05:19:40;;;;;;;49.57;22.13;;;;;;;;;;5049462;28;20052;-65
2022/08/10 05:22:07;;;;;;;47.70;21.27;;;;;;;;;;5050349;28;20511;-65
2022/08/10 05:24:33;;;;;;;58.40;22.87;;;;;;;;;;5049823;28;20798;-65
2022/08/10 05:26:59;;;;;;;44.10;20.03;;;;;;;;;;5049867;28;20049;-65
2022/08/10 05:29:25;;;;;;;42.43;20.57;;;;;;;;;;5049397;28;20127;-65
2022/08/10 05:31:52;;;;;;;50.87;21.63;;;;;;;;;;5049427;28;20407;-65
2022/08/10 05:34:20;;;;;;;36.03;19.00;;;;;;;;;;5049814;28;20535;-65
2022/08/10 05:36:46;;;;;;;43.70;19.90;;;;;;;;;;5049206;28;20143;-65
2022/08/10 05:39:12;;;;;;;48.53;21.37;;;;;;;;;;5049550;28;20507;-65
2022/08/10 05:41:38;;;;;;;38.27;19.43;;;;;;;;;;5049328;28;20049;-65
2022/08/10 05:44:04;;;;;;;45.00;19.47;;;;;;;;;;5049860;28;20041;-65
2022/08/10 05:46:30;;;;;;;42.70;19.07;;;;;;;;;;5049645;28;20041;-65
2022/08/10 05:48:56;;;;;;;38.53;18.43;;;;;;;;;;5049361;28;20049;-65
2022/08/10 05:51:24;;;;;;;42.80;19.47;;;;;;;;;;5049946;28;20127;-65
2022/08/10 05:53:50;;;;;;;42.53;19.20;;;;;;;;;;5049114;28;20414;-65
2022/08/10 05:56:19;;;;;;;32.10;17.03;;;;;;;;;;5049013;28;20049;-65
2022/08/10 05:58:45;;;;;;;38.93;17.90;;;;;;;;;;5048357;28;20037;-65
2022/08/10 06:01:12;;;;;;;40.50;18.20;;;;;;;;;;5047895;28;20045;-65
2022/08/10 06:03:51;;;;;;;34.63;17.67;;;;;;;;;;5048920;28;20049;-65
2022/08/10 06:06:19;;;;;;;34.90;17.43;;;;;;;;;;5049485;28;20415;-65
2022/08/10 06:08:45;;;;;;;33.73;17.83;;;;;;;;;;5048420;28;20056;-65
2022/08/10 06:11:13;;;;;;;35.00;17.23;;;;;;;;;;5047683;28;20107;-65
2022/08/10 06:16:26;;;;;;;39.10;17.60;;;;;;;;;;5049102;28;20561;-65
2022/08/10 06:18:54;;;;;;;25.50;16.00;;;;;;;;;;5049279;28;20410;-65
2022/08/10 06:21:20;;;;;;;32.13;17.23;;;;;;;;;;5049168;28;20139;-65
2022/08/10 06:23:47;;;;;;;27.87;15.43;;;;;;;;;;5048235;28;20479;-65
2022/08/10 06:26:13;;;;;;;33.87;17.90;;;;;;;;;;5048990;28;20053;-65
2022/08/10 06:28:40;;;;;;;21.73;14.33;;;;;;;;;;5047903;28;20057;-65
2022/08/10 06:31:07;;;;;;;27.90;16.63;;;;;;;;;;5048794;28;20091;-65
2022/08/10 06:33:35;;;;;;;31.03;15.90;;;;;;;;;;5048767;28;20136;-65
2022/08/10 06:36:02;;;;;;;26.10;15.97;;;;;;;;;;5047969;28;20041;-65
2022/08/10 06:38:29;;;;;;;27.87;15.17;;;;;;;;;;5048575;28;20032;-65
2022/08/10 06:40:57;;;;;;;23.93;14.43;;;;;;;;;;5048498;28;20044;-65
2022/08/10 06:43:24;;;;;;;25.07;14.53;;;;;;;;;;5045890;28;20143;-65
2022/08/10 06:45:54;;;;;;;27.30;15.00;;;;;;;;;;5048355;28;20056;-65
2022/08/10 06:48:24;;;;;;;21.97;13.93;;;;;;;;;;5048464;28;20114;-65
2022/08/10 06:50:52;;;;;;;30.47;14.60;;;;;;;;;;5048732;28;20501;-65
2022/08/10 06:53:20;;;;;;;20.37;13.80;;;;;;;;;;5039262;28;20049;-65
2022/08/10 06:55:50;;;;;;;22.87;13.80;;;;;;;;;;5047765;28;20124;-65
2022/08/10 06:58:19;;;;;;;17.20;11.03;;;;;;;;;;5048131;28;20094;-65
2022/08/10 07:00:45;;;;;;;21.20;12.67;;;;;;;;;;5048472;28;20053;-65
2022/08/10 07:03:13;;;;;;;21.50;11.03;;;;;;;;;;5048025;28;20045;-65
2022/08/10 07:05:42;;;;;;;15.53;9.37;;;;;;;;;;5048016;28;20063;-65
2022/08/10 07:08:08;;;;;;;19.97;9.57;;;;;;;;;;5048030;28;20422;-65
2022/08/10 07:10:36;;;;;;;17.83;10.23;;;;;;;;;;5048117;28;20251;-65
2022/08/10 07:13:03;;;;;;;15.63;10.33;;;;;;;;;;5048345;28;20359;-65
2022/08/10 07:15:29;;;;;;;12.00;9.50;;;;;;;;;;5048247;28;20399;-65
2022/08/10 07:17:56;;;;;;;14.57;8.97;;;;;;;;;;5047499;28;20041;-65
2022/08/10 07:20:22;;;;;;;14.07;9.63;;;;;;;;;;5047769;28;20384;-65
2022/08/10 07:22:50;;;;;;;11.47;7.73;;;;;;;;;;5047888;28;20437;-65
2022/08/10 07:25:18;;;;;;;11.30;7.40;;;;;;;;;;5047367;28;20088;-65
2022/08/10 07:27:45;;;;;;;13.70;8.00;;;;;;;;;;5047604;28;20051;-66
2022/08/10 07:30:11;;;;;;;13.20;6.93;;;;;;;;;;5045977;28;20045;-65
2022/08/10 07:32:39;;;;;;;11.63;7.43;;;;;;;;;;5047682;28;20044;-65
2022/08/10 07:35:05;;;;;;;9.77;7.63;;;;;;;;;;5047612;28;20057;-65
2022/08/10 07:37:34;;;;;;;12.70;6.10;;;;;;;;;;5047195;28;20043;-65
2022/08/10 07:40:02;;;;;;;10.47;6.70;;;;;;;;;;5047071;28;20033;-65
2022/08/10 07:42:29;;;;;;;10.40;7.10;;;;;;;;;;5047416;28;20553;-65
2022/08/10 07:44:55;;;;;;;11.70;6.10;;;;;;;;;;5046035;28;20048;-65
2022/08/10 07:47:28;;;;;;;11.33;5.97;;;;;;;;;;5047705;28;20521;-65
2022/08/10 07:49:56;;;;;;;7.32;5.25;;;;;;;;;;5047396;28;20041;-65
2022/08/10 07:52:23;;;;;;;10.17;5.40;;;;;;;;;;5047085;28;20388;-65
2022/08/10 07:54:49;;;;;;;11.80;6.13;;;;;;;;;;5047381;28;20048;-65
2022/08/10 07:57:22;;;;;;;12.97;6.50;;;;;;;;;;5047546;28;20410;-65
2022/08/10 07:59:53;;;;;;;16.55;6.57;;;;;;;;;;5043987;28;20067;-65
2022/08/10 08:02:28;;;;;;;12.63;5.17;;;;;;;;;;5047413;28;20088;-65
2022/08/10 08:04:55;;;;;;;9.70;6.63;;;;;;;;;;5047360;28;20123;-65
2022/08/10 08:07:22;;;;;;;11.50;6.10;;;;;;;;;;5047068;28;20049;-66
2022/08/10 08:09:49;;;;;;;10.07;6.50;;;;;;;;;;5047409;28;20059;-65
2022/08/10 08:12:16;;;;;;;8.30;4.83;;;;;;;;;;5047246;28;20115;-65
2022/08/10 08:14:43;;;;;;;7.77;4.80;;;;;;;;;;5046869;28;20423;-65
2022/08/10 08:17:10;;;;;;;9.77;3.90;;;;;;;;;;5047724;28;20051;-66
2022/08/10 08:19:36;;;;;;;7.87;3.37;;;;;;;;;;5047250;28;20137;-66
2022/08/10 08:22:03;;;;;;;6.10;4.00;;;;;;;;;;5046753;28;20084;-66
2022/08/10 08:24:31;;;;;;;5.77;3.20;;;;;;;;;;5046812;28;20414;-66
2022/08/10 08:26:57;;;;;;;10.53;3.80;;;;;;;;;;5046881;28;20044;-66
2022/08/10 08:29:24;;;;;;;4.40;2.97;;;;;;;;;;5046110;28;20052;-66
2022/08/10 08:31:50;;;;;;;6.50;3.10;;;;;;;;;;5047109;28;20443;-66
2022/08/10 08:34:17;;;;;;;5.47;3.13;;;;;;;;;;5045336;28;20512;-66
2022/08/10 08:36:44;;;;;;;5.93;3.10;;;;;;;;;;5046670;28;20510;-66
2022/08/10 08:39:11;;;;;;;7.40;2.17;;;;;;;;;;5046256;28;20048;-66
2022/08/10 08:41:56;;;;;;;6.77;2.97;;;;;;;;;;5047197;28;20056;-66
2022/08/10 08:44:25;;;;;;;6.20;2.27;;;;;;;;;;5047534;28;20392;-66
2022/08/10 08:47:01;;;;;;;4.67;2.07;;;;;;;;;;5046729;28;20053;-66
2022/08/10 08:49:44;;;;;;;6.40;2.30;;;;;;;;;;5047133;28;20045;-66
2022/08/10 08:52:16;;;;;;;6.00;2.35;;;;;;;;;;5040034;28;20037;-66
2022/08/10 08:54:45;;;;;;;5.10;2.43;;;;;;;;;;5046595;28;20045;-66
2022/08/10 08:57:26;;;;;;;7.10;1.90;;;;;;;;;;5046705;28;20088;-66
2022/08/10 09:00:12;;;;;;;3.70;2.20;;;;;;;;;;5046723;28;20128;-66
2022/08/10 09:02:57;;;;;;;3.17;1.63;;;;;;;;;;5046833;28;20423;-66
2022/08/10 09:05:31;;;;;;;3.58;1.60;;;;;;;;;;5046390;28;20052;-66
2022/08/10 09:08:16;;;;;;;6.03;1.98;;;;;;;;;;5048461;28;20419;-66
2022/08/10 09:10:45;;;;;;;3.90;1.58;;;;;;;;;;5050454;28;20199;-66
2022/08/10 09:13:19;;;;;;;3.72;1.55;;;;;;;;;;5049164;28;20482;-66
2022/08/10 09:15:45;;;;;;;4.25;1.65;;;;;;;;;;5050385;28;20053;-66
2022/08/10 09:18:28;;;;;;;4.03;2.03;;;;;;;;;;5049981;28;20052;-66
2022/08/10 09:21:13;;;;;;;8.32;1.50;;;;;;;;;;5049334;28;20079;-66
2022/08/10 09:23:50;;;;;;;3.83;1.20;;;;;;;;;;5050005;28;20052;-66
2022/08/10 09:26:20;;;;;;;6.03;1.50;;;;;;;;;;5043078;28;20447;-66
2022/08/10 09:28:46;;;;;;;4.50;1.35;;;;;;;;;;5048710;28;20474;-66
2022/08/10 09:31:13;;;;;;;2.92;1.30;;;;;;;;;;5049625;28;20037;-66
2022/08/10 09:33:57;;;;;;;5.35;1.42;;;;;;;;;;5049634;28;20534;-66
2022/08/10 09:36:30;;;;;;;4.25;1.58;;;;;;;;;;5049847;28;20142;-66
2022/08/10 09:38:59;;;;;;;7.93;1.20;;;;;;;;;;5049975;28;20049;-66
2022/08/10 09:41:32;;;;;;;2.67;1.05;;;;;;;;;;5049974;28;20052;-66
2022/08/10 09:44:01;;;;;;;3.10;1.00;;;;;;;;;;5049186;28;20033;-66
2022/08/10 09:46:33;;;;;;;2.75;1.33;;;;;;;;;;5049875;28;20045;-66
2022/08/10 09:49:08;;;;;;;5.68;1.70;;;;;;;;;;5049397;28;20190;-64
2022/08/10 09:51:53;;;;;;;5.72;1.10;;;;;;;;;;5049939;28;20045;-64
2022/08/10 09:54:33;;;;;;;3.25;1.20;;;;;;;;;;5048981;28;20052;-64
2022/08/10 09:57:18;;;;;;;2.92;1.33;;;;;;;;;;5049296;28;20479;-64
2022/08/10 09:59:44;;;;;;;4.35;1.00;;;;;;;;;;5048180;28;20128;-64
2022/08/10 10:02:14;;;;;;;3.85;1.05;;;;;;;;;;5048330;28;20144;-64
2022/08/10 10:04:58;;;;;;;2.47;1.05;;;;;;;;;;5048830;28;20064;-64
2022/08/10 10:07:28;;;;;;;4.55;1.20;;;;;;;;;;5049465;28;20610;-64
2022/08/10 10:10:17;;;;;;;4.85;1.13;;;;;;;;;;5049220;28;20471;-64
2022/08/10 10:12:56;;;;;;;3.22;0.90;;;;;;;;;;5032230;28;20543;-64
2022/08/10 10:15:40;;;;;;;3.88;1.20;;;;;;;;;;5049181;28;20172;-64
2022/08/10 10:18:09;;;;;;;2.17;1.00;;;;;;;;;;5047634;28;20060;-64
2022/08/10 10:20:38;;;;;;;3.13;1.10;;;;;;;;;;5049323;28;20157;-64
2022/08/10 10:23:08;;;;;;;3.35;1.00;;;;;;;;;;5048414;28;20486;-64
2022/08/10 10:25:57;;;;;;;3.55;1.38;;;;;;;;;;5049275;28;20045;-64
2022/08/10 10:28:33;;;;;;;5.30;1.27;;;;;;;;;;5047772;28;20076;-64
2022/08/10 10:31:29;;;;;;;2.10;0.90;;;;;;;;;;5048512;28;20052;-64
2022/08/10 10:34:06;;;;;;;3.38;0.88;;;;;;;;;;5045703;28;20068;-64
2022/08/10 10:36:33;;;;;;;2.35;0.70;;;;;;;;;;5049020;28;20053;-64
2022/08/10 10:39:01;;;;;;;1.88;0.77;;;;;;;;;;5048266;28;20063;-64
2022/08/10 10:41:53;;;;;;;5.10;1.00;;;;;;;;;;5049020;28;20066;-64
2022/08/10 10:44:26;;;;;;;3.40;0.90;;;;;;;;;;5044271;28;20052;-64
2022/08/10 10:46:58;;;;;;;5.75;1.52;;;;;;;;;;5048953;28;20033;-64
2022/08/10 10:49:36;;;;;;;5.10;1.08;;;;;;;;;;5048319;28;20049;-65
2022/08/10 10:52:11;;;;;;;2.97;1.10;;;;;;;;;;5048453;28;20136;-64
2022/08/10 10:54:37;;;;;;;1.73;0.80;;;;;;;;;;5048856;28;20052;-64
2022/08/10 10:57:03;;;;;;;4.43;0.90;;;;;;;;;;5047317;28;20049;-64
2022/08/10 10:59:29;;;;;;;2.63;0.75;;;;;;;;;;5044253;28;20128;-64
2022/08/10 11:01:55;;;;;;;1.95;0.70;;;;;;;;;;5048436;28;20530;-64
2022/08/10 11:04:24;;;;;;;4.40;0.80;;;;;;;;;;5048387;28;20063;-64
2022/08/10 11:07:13;;;;;;;3.22;0.88;;;;;;;;;;5047848;28;20182;-64
2022/08/10 11:09:43;;;;;;;2.55;0.65;;;;;;;;;;5045934;28;20128;-64
2022/08/10 11:12:15;;;;;;;2.22;0.90;;;;;;;;;;5048390;28;20056;-65
2022/08/10 11:14:51;;;;;;;0.95;0.55;;;;;;;;;;5048030;28;20052;-64
2022/08/10 11:17:18;;;;;;;3.13;0.80;;;;;;;;;;5048181;28;20012;-64
2022/08/10 11:19:44;;;;;;;1.52;0.60;;;;;;;;;;5047571;28;20131;-64
2022/08/10 11:22:22;;;;;;;4.85;1.45;;;;;;;;;;5047920;28;20049;-66
2022/08/10 11:24:53;;;;;;;2.85;1.02;;;;;;;;;;5047908;28;20554;-64
2022/08/10 11:27:28;;;;;;;1.27;0.70;;;;;;;;;;5047983;28;20076;-65
2022/08/10 11:30:00;;;;;;;3.03;0.80;;;;;;;;;;5046478;28;20127;-65
2022/08/10 11:32:52;;;;;;;2.28;0.75;;;;;;;;;;5046754;28;20056;-65
2022/08/10 11:35:24;;;;;;;3.40;0.85;;;;;;;;;;5033403;28;20045;-65
2022/08/10 11:37:53;;;;;;;2.35;0.82;;;;;;;;;;5046846;28;20064;-65
2022/08/10 11:40:55;;;;;;;3.33;0.93;;;;;;;;;;5048125;28;20068;-65
2022/08/10 11:43:25;;;;;;;2.20;0.90;;;;;;;;;;5045368;28;20045;-65
2022/08/10 11:45:59;;;;;;;2.87;1.07;;;;;;;;;;5047053;28;20485;-65
2022/08/10 11:48:25;;;;;;;2.20;0.80;;;;;;;;;;5040779;28;20748;-65
2022/08/10 11:50:55;;;;;;;2.30;0.75;;;;;;;;;;5046991;28;20128;-65
2022/08/10 11:53:44;;;;;;;2.83;0.77;;;;;;;;;;5047140;28;20047;-65
2022/08/10 11:56:11;;;;;;;2.78;0.90;;;;;;;;;;5038873;28;20142;-65
2022/08/10 12:01:28;;;;;;;3.67;1.15;;;;;;;;;;5046845;28;20041;-65
2022/08/10 12:03:55;;;;;;;4.40;1.05;;;;;;;;;;5047927;28;20037;-65
2022/08/10 12:06:22;;;;;;;2.63;1.10;;;;;;;;;;5047132;28;20048;-65
2022/08/10 12:08:49;;;;;;;5.95;1.00;;;;;;;;;;5047230;28;20151;-65
2022/08/10 12:11:21;;;;;;;1.38;0.70;;;;;;;;;;5046961;28;20550;-65
2022/08/10 12:14:08;;;;;;;3.10;0.90;;;;;;;;;;5047593;28;20036;-65
2022/08/10 12:16:38;;;;;;;4.20;0.95;;;;;;;;;;5047289;28;20147;-65
2022/08/10 12:19:18;;;;;;;1.73;0.90;;;;;;;;;;5046881;28;20041;-65
2022/08/10 12:21:44;;;;;;;2.30;1.10;;;;;;;;;;5045038;28;20354;-65
2022/08/10 12:24:22;;;;;;;3.85;0.98;;;;;;;;;;5047260;28;20084;-65
2022/08/10 12:27:06;;;;;;;3.17;0.80;;;;;;;;;;5047480;28;20053;-65
2022/08/10 12:29:37;;;;;;;2.63;1.23;;;;;;;;;;5046638;28;20578;-65
2022/08/10 12:32:05;;;;;;;1.83;0.80;;;;;;;;;;5047622;28;20068;-65
2022/08/10 12:35:04;;;;;;;2.53;1.20;;;;;;;;;;5046444;28;20158;-65
2022/08/10 12:37:38;;;;;;;5.07;0.95;;;;;;;;;;5029805;28;20049;-65
2022/08/10 12:40:07;;;;;;;4.45;1.10;;;;;;;;;;5047071;28;20475;-65
2022/08/10 12:42:39;;;;;;;4.90;1.10;;;;;;;;;;5048052;28;20052;-65
2022/08/10 12:45:08;;;;;;;1.77;0.90;;;;;;;;;;5042528;28;20041;-65
2022/08/10 12:47:46;;;;;;;3.42;0.95;;;;;;;;;;5050628;28;20122;-65
2022/08/10 12:50:19;;;;;;;2.90;0.95;;;;;;;;;;5043625;28;20049;-65
2022/08/10 12:53:11;;;;;;;4.25;1.08;;;;;;;;;;5049418;28;20174;-65
2022/08/10 12:55:37;;;;;;;4.13;0.90;;;;;;;;;;5049844;28;20092;-65
2022/08/10 12:58:04;;;;;;;3.75;1.40;;;;;;;;;;5050458;28;20554;-65
2022/08/10 13:00:32;;;;;;;1.80;0.85;;;;;;;;;;5050345;28;20036;-65
2022/08/10 13:03:00;;;;;;;4.07;0.90;;;;;;;;;;5050584;28;20789;-65
2022/08/10 13:05:27;;;;;;;2.55;1.10;;;;;;;;;;5050844;28;20056;-65
2022/08/10 13:10:48;;;;;;;4.20;0.85;;;;;;;;;;5050694;28;20073;-65
2022/08/10 13:13:18;;;;;;;2.22;0.70;;;;;;;;;;5049947;28;20417;-65
2022/08/10 13:15:45;;;;;;;3.17;0.80;;;;;;;;;;5050283;28;20113;-65
2022/08/10 13:18:11;;;;;;;2.53;0.82;;;;;;;;;;5049978;28;20102;-66
2022/08/10 13:20:39;;;;;;;4.60;1.00;;;;;;;;;;5049682;28;20495;-65
2022/08/10 13:23:11;;;;;;;1.52;0.65;;;;;;;;;;5049960;28;20063;-66
2022/08/10 13:25:38;;;;;;;0.95;0.50;;;;;;;;;;5049748;28;20044;-65
2022/08/10 13:28:06;;;;;;;1.75;0.77;;;;;;;;;;5049765;28;20147;-65
2022/08/10 13:30:32;;;;;;;3.13;0.88;;;;;;;;;;5049826;28;20341;-66
2022/08/10 13:32:59;;;;;;;3.13;0.98;;;;;;;;;;5049547;28;20539;-65
2022/08/10 13:35:26;;;;;;;3.88;0.75;;;;;;;;;;5049459;28;20492;-65
2022/08/10 13:37:54;;;;;;;2.00;0.80;;;;;;;;;;5049876;28;20075;-65
2022/08/10 13:40:21;;;;;;;2.85;0.93;;;;;;;;;;5049739;28;20135;-65
2022/08/10 13:42:50;;;;;;;1.60;1.00;;;;;;;;;;5049667;28;20529;-65
2022/08/10 13:45:20;;;;;;;1.70;0.80;;;;;;;;;;5049174;28;20081;-65
2022/08/10 13:47:48;;;;;;;3.55;0.80;;;;;;;;;;5050055;28;20040;-65
2022/08/10 13:50:20;;;;;;;3.45;0.80;;;;;;;;;;5049907;28;20116;-65
2022/08/10 13:52:51;;;;;;;4.35;0.80;;;;;;;;;;5048871;28;20049;-65
2022/08/10 13:55:20;;;;;;;3.53;0.85;;;;;;;;;;5048778;28;20479;-65
2022/08/10 13:57:48;;;;;;;2.95;0.80;;;;;;;;;;5049549;28;20076;-65
2022/08/10 14:00:14;;;;;;;3.03;0.73;;;;;;;;;;5046085;28;20087;-65
2022/08/10 14:02:41;;;;;;;2.40;0.85;;;;;;;;;;5040179;28;20116;-65
2022/08/10 14:05:08;;;;;;;1.83;0.75;;;;;;;;;;5049203;28;20045;-65
2022/08/10 14:07:37;;;;;;;1.95;0.77;;;;;;;;;;5049091;28;20449;-65
2022/08/10 14:10:06;;;;;;;2.10;0.90;;;;;;;;;;5048845;28;20049;-65
2022/08/10 14:12:36;;;;;;;2.15;0.95;;;;;;;;;;5049280;28;20053;-65
2022/08/10 14:15:04;;;;;;;4.07;0.50;;;;;;;;;;5049039;28;20110;-65
2022/08/10 14:17:31;;;;;;;6.97;0.90;;;;;;;;;;5049474;28;20462;-66
2022/08/10 14:19:58;;;;;;;3.50;0.82;;;;;;;;;;5048900;28;20474;-65
2022/08/10 14:22:25;;;;;;;3.53;0.90;;;;;;;;;;5048680;28;20059;-66
2022/08/10 14:24:51;;;;;;;2.38;0.80;;;;;;;;;;5048931;28;20083;-65
2022/08/10 14:27:18;;;;;;;4.10;1.02;;;;;;;;;;5048955;28;20095;-65
2022/08/10 14:29:50;;;;;;;4.78;1.45;;;;;;;;;;5048680;28;20052;-65
2022/08/10 14:32:18;;;;;;;2.20;1.25;;;;;;;;;;5048405;28;20040;-65
2022/08/10 14:34:44;;;;;;;5.25;1.13;;;;;;;;;;5048598;28;20419;-65
2022/08/10 14:37:14;;;;;;;1.77;0.80;;;;;;;;;;5048517;28;20047;-66
2022/08/10 14:39:43;;;;;;;3.80;0.70;;;;;;;;;;5048001;28;20041;-65
2022/08/10 14:42:12;;;;;;;1.88;0.90;;;;;;;;;;5048616;28;20040;-65
2022/08/10 14:45:01;;;;;;;1.65;0.88;;;;;;;;;;5048713;28;20126;-65
2022/08/10 14:47:28;;;;;;;3.05;0.70;;;;;;;;;;5041501;28;20511;-66
2022/08/10 14:49:55;;;;;;;2.25;0.90;;;;;;;;;;5048667;28;20448;-65
2022/08/10 14:52:21;;;;;;;2.00;1.05;;;;;;;;;;5048389;28;20076;-65
2022/08/10 14:54:49;;;;;;;1.85;0.80;;;;;;;;;;5047767;28;20045;-65
2022/08/10 14:57:15;;;;;;;2.20;0.70;;;;;;;;;;5048199;28;20159;-66